sensor_id;sensor_type;location;lat;lon;timestamp;pressure;altitude;pressure_sealevel;temperature;humidity
12949;BME280;6539;49.476;8.484;2023-04-06T00:00:36;100825.47;;;9.00;41.52
12949;BME280;6539;49.476;8.484;2023-04-06T00:03:04;100827.78;;;8.88;41.88
12949;BME280;6539;49.476;8.484;2023-04-06T00:05:32;100827.38;;;8.89;41.53
12949;BME280;6539;49.476;8.484;2023-04-06T00:08:00;100823.44;;;8.80;41.61
12949;BME280;6539;49.476;8.484;2023-04-06T00:10:26;100828.06;;;8.76;41.86
12949;BME280;6539;49.476;8.484;2023-04-06T00:12:55;100815.13;;;8.66;41.89
12949;BME280;6539;49.476;8.484;2023-04-06T00:15:22;100818.19;;;8.61;42.19
12949;BME280;6539;49.476;8.484;2023-04-06T00:17:50;100820.13;;;8.57;41.99
12949;BME280;6539;49.476;8.484;2023-04-06T00:20:16;100822.47;;;8.51;42.56
12949;BME280;6539;49.476;8.484;2023-04-06T00:22:43;100823.66;;;8.57;42.88
12949;BME280;6539;49.476;8.484;2023-04-06T00:25:10;100816.66;;;8.63;42.96
12949;BME280;6539;49.476;8.484;2023-04-06T00:27:37;100813.56;;;8.65;42.97
12949;BME280;6539;49.476;8.484;2023-04-06T00:30:07;100815.56;;;8.75;42.82
12949;BME280;6539;49.476;8.484;2023-04-06T00:32:37;100809.69;;;8.76;43.00
12949;BME280;6539;49.476;8.484;2023-04-06T00:35:06;100814.38;;;8.76;42.92
12949;BME280;6539;49.476;8.484;2023-04-06T00:37:32;100809.31;;;8.74;43.02
12949;BME280;6539;49.476;8.484;2023-04-06T00:40:03;100805.41;;;8.75;43.08
12949;BME280;6539;49.476;8.484;2023-04-06T00:42:29;100808.16;;;8.75;43.32
12949;BME280;6539;49.476;8.484;2023-04-06T00:45:00;100799.94;;;8.79;43.38
12949;BME280;6539;49.476;8.484;2023-04-06T00:47:29;100804.22;;;8.76;43.54
12949;BME280;6539;49.476;8.484;2023-04-06T00:49:55;100801.44;;;8.69;43.60
12949;BME280;6539;49.476;8.484;2023-04-06T00:52:21;100799.44;;;8.56;43.77
12949;BME280;6539;49.476;8.484;2023-04-06T00:54:47;100794.72;;;8.56;44.05
12949;BME280;6539;49.476;8.484;2023-04-06T00:57:13;100798.28;;;8.60;44.06
12949;BME280;6539;49.476;8.484;2023-04-06T00:59:40;100792.03;;;8.60;44.26
12949;BME280;6539;49.476;8.484;2023-04-06T01:02:08;100791.63;;;8.61;44.42
12949;BME280;6539;49.476;8.484;2023-04-06T01:04:37;100791.63;;;8.61;44.54
12949;BME280;6539;49.476;8.484;2023-04-06T01:07:05;100779.47;;;8.55;44.41
12949;BME280;6539;49.476;8.484;2023-04-06T01:09:32;100791.19;;;8.52;45.18
12949;BME280;6539;49.476;8.484;2023-04-06T01:11:59;100790.38;;;8.48;45.32
12949;BME280;6539;49.476;8.484;2023-04-06T01:14:25;100784.53;;;8.50;45.37
12949;BME280;6539;49.476;8.484;2023-04-06T01:16:58;100780.16;;;8.41;45.75
12949;BME280;6539;49.476;8.484;2023-04-06T01:19:27;100780.16;;;8.41;46.28
12949;BME280;6539;49.476;8.484;2023-04-06T01:21:53;100780.44;;;8.26;47.28
12949;BME280;6539;49.476;8.484;2023-04-06T01:24:22;100778.84;;;8.21;47.06
12949;BME280;6539;49.476;8.484;2023-04-06T01:26:48;100777.19;;;8.13;47.44
12949;BME280;6539;49.476;8.484;2023-04-06T01:29:13;100776.28;;;7.95;47.97
12949;BME280;6539;49.476;8.484;2023-04-06T01:31:40;100770.03;;;7.95;47.86
12949;BME280;6539;49.476;8.484;2023-04-06T01:34:08;100776.25;;;7.92;48.16
12949;BME280;6539;49.476;8.484;2023-04-06T01:36:34;100774.75;;;7.98;48.07
12949;BME280;6539;49.476;8.484;2023-04-06T01:39:02;100764.66;;;8.05;47.63
12949;BME280;6539;49.476;8.484;2023-04-06T01:41:30;100768.09;;;7.95;47.90
12949;BME280;6539;49.476;8.484;2023-04-06T01:43:56;100761.03;;;7.91;48.10
12949;BME280;6539;49.476;8.484;2023-04-06T01:46:22;100758.69;;;7.89;48.13
12949;BME280;6539;49.476;8.484;2023-04-06T01:48:48;100750.56;;;8.00;47.94
12949;BME280;6539;49.476;8.484;2023-04-06T01:51:16;100759.84;;;7.92;48.27
12949;BME280;6539;49.476;8.484;2023-04-06T01:53:42;100763.22;;;7.75;48.82
12949;BME280;6539;49.476;8.484;2023-04-06T01:56:11;100751.06;;;7.68;49.34
12949;BME280;6539;49.476;8.484;2023-04-06T01:58:36;100754.19;;;7.70;49.36
12949;BME280;6539;49.476;8.484;2023-04-06T02:01:02;100752.56;;;7.62;50.21
12949;BME280;6539;49.476;8.484;2023-04-06T02:03:28;100749.34;;;7.50;50.59
12949;BME280;6539;49.476;8.484;2023-04-06T02:05:54;100758.25;;;7.43;50.83
12949;BME280;6539;49.476;8.484;2023-04-06T02:08:20;100752.72;;;7.40;51.04
12949;BME280;6539;49.476;8.484;2023-04-06T02:10:45;100756.22;;;7.37;50.69
12949;BME280;6539;49.476;8.484;2023-04-06T02:13:13;100755.16;;;7.48;50.56
12949;BME280;6539;49.476;8.484;2023-04-06T02:15:44;100764.19;;;7.52;50.24
12949;BME280;6539;49.476;8.484;2023-04-06T02:18:10;100770.81;;;7.55;49.81
12949;BME280;6539;49.476;8.484;2023-04-06T02:20:38;100758.75;;;7.56;49.84
12949;BME280;6539;49.476;8.484;2023-04-06T02:23:04;100759.53;;;7.56;50.28
12949;BME280;6539;49.476;8.484;2023-04-06T02:25:30;100753.25;;;7.52;51.20
12949;BME280;6539;49.476;8.484;2023-04-06T02:27:58;100755.13;;;7.45;51.73
12949;BME280;6539;49.476;8.484;2023-04-06T02:30:26;100753.09;;;7.38;51.83
12949;BME280;6539;49.476;8.484;2023-04-06T02:32:51;100749.59;;;7.38;51.82
12949;BME280;6539;49.476;8.484;2023-04-06T02:35:17;100748.75;;;7.34;51.58
12949;BME280;6539;49.476;8.484;2023-04-06T02:37:43;100746.41;;;7.29;51.32
12949;BME280;6539;49.476;8.484;2023-04-06T02:40:10;100751.47;;;7.30;50.73
12949;BME280;6539;49.476;8.484;2023-04-06T02:42:35;100753.44;;;7.33;50.92
12949;BME280;6539;49.476;8.484;2023-04-06T02:45:05;100755.47;;;7.40;50.54
12949;BME280;6539;49.476;8.484;2023-04-06T02:47:31;100748.84;;;7.41;50.29
12949;BME280;6539;49.476;8.484;2023-04-06T02:49:59;100746.84;;;7.38;50.04
12949;BME280;6539;49.476;8.484;2023-04-06T02:52:27;100742.81;;;7.25;50.39
12949;BME280;6539;49.476;8.484;2023-04-06T02:54:55;100745.94;;;7.23;49.92
12949;BME280;6539;49.476;8.484;2023-04-06T02:57:21;100743.59;;;7.22;49.70
12949;BME280;6539;49.476;8.484;2023-04-06T02:59:47;100752.06;;;7.13;49.25
12949;BME280;6539;49.476;8.484;2023-04-06T03:02:13;100752.41;;;7.12;49.54
12949;BME280;6539;49.476;8.484;2023-04-06T03:04:38;100741.78;;;7.03;49.55
12949;BME280;6539;49.476;8.484;2023-04-06T03:07:06;100740.25;;;7.02;49.67
12949;BME280;6539;49.476;8.484;2023-04-06T03:09:37;100745.78;;;7.09;49.85
12949;BME280;6539;49.476;8.484;2023-04-06T03:12:03;100747.31;;;7.07;49.61
12949;BME280;6539;49.476;8.484;2023-04-06T03:14:29;100744.09;;;7.01;49.96
12949;BME280;6539;49.476;8.484;2023-04-06T03:16:55;100738.66;;;7.01;49.69
12949;BME280;6539;49.476;8.484;2023-04-06T03:19:21;100747.19;;;6.96;50.15
12949;BME280;6539;49.476;8.484;2023-04-06T03:21:46;100746.28;;;6.85;50.15
12949;BME280;6539;49.476;8.484;2023-04-06T03:24:15;100746.97;;;6.78;50.23
12949;BME280;6539;49.476;8.484;2023-04-06T03:26:41;100749.00;;;6.85;50.55
12949;BME280;6539;49.476;8.484;2023-04-06T03:29:06;100742.75;;;6.84;50.21
12949;BME280;6539;49.476;8.484;2023-04-06T03:31:33;100745.47;;;6.84;50.32
12949;BME280;6539;49.476;8.484;2023-04-06T03:33:59;100741.63;;;6.89;50.04
12949;BME280;6539;49.476;8.484;2023-04-06T03:36:27;100742.31;;;6.79;50.51
12949;BME280;6539;49.476;8.484;2023-04-06T03:38:58;100749.41;;;6.87;50.42
12949;BME280;6539;49.476;8.484;2023-04-06T03:41:23;100760.19;;;6.76;50.84
12949;BME280;6539;49.476;8.484;2023-04-06T03:43:52;100760.31;;;6.87;50.82
12949;BME280;6539;49.476;8.484;2023-04-06T03:46:21;100757.19;;;6.85;50.97
12949;BME280;6539;49.476;8.484;2023-04-06T03:48:49;100758.28;;;6.80;50.62
12949;BME280;6539;49.476;8.484;2023-04-06T03:51:17;100754.34;;;6.78;50.83
12949;BME280;6539;49.476;8.484;2023-04-06T03:53:42;100764.13;;;6.79;51.11
12949;BME280;6539;49.476;8.484;2023-04-06T03:56:08;100753.41;;;6.63;51.03
12949;BME280;6539;49.476;8.484;2023-04-06T03:58:36;100767.56;;;6.46;51.95
12949;BME280;6539;49.476;8.484;2023-04-06T04:01:05;100770.72;;;6.48;51.69
12949;BME280;6539;49.476;8.484;2023-04-06T04:03:33;100769.94;;;6.48;51.91
12949;BME280;6539;49.476;8.484;2023-04-06T04:05:58;100767.50;;;6.43;51.55
12949;BME280;6539;49.476;8.484;2023-04-06T04:08:24;100768.72;;;6.45;51.09
12949;BME280;6539;49.476;8.484;2023-04-06T04:10:50;100762.91;;;6.47;51.48
12949;BME280;6539;49.476;8.484;2023-04-06T04:13:16;100771.19;;;6.28;51.09
12949;BME280;6539;49.476;8.484;2023-04-06T04:15:44;100770.72;;;6.22;51.29
12949;BME280;6539;49.476;8.484;2023-04-06T04:18:14;100778.94;;;6.26;50.55
12949;BME280;6539;49.476;8.484;2023-04-06T04:20:41;100781.38;;;6.31;50.60
12949;BME280;6539;49.476;8.484;2023-04-06T04:23:10;100775.50;;;6.29;50.55
12949;BME280;6539;49.476;8.484;2023-04-06T04:25:36;100779.34;;;6.28;50.27
12949;BME280;6539;49.476;8.484;2023-04-06T04:28:02;100779.06;;;6.33;49.97
12949;BME280;6539;49.476;8.484;2023-04-06T04:30:30;100785.69;;;6.32;49.65
12949;BME280;6539;49.476;8.484;2023-04-06T04:32:56;100782.19;;;6.35;49.27
12949;BME280;6539;49.476;8.484;2023-04-06T04:35:27;100787.03;;;6.19;49.43
12949;BME280;6539;49.476;8.484;2023-04-06T04:37:56;100779.31;;;6.24;49.25
12949;BME280;6539;49.476;8.484;2023-04-06T04:40:23;100771.25;;;6.31;49.15
12949;BME280;6539;49.476;8.484;2023-04-06T04:42:49;100780.31;;;6.39;48.54
12949;BME280;6539;49.476;8.484;2023-04-06T04:45:19;100778.88;;;6.45;48.49
12949;BME280;6539;49.476;8.484;2023-04-06T04:47:47;100784.63;;;6.40;48.59
12949;BME280;6539;49.476;8.484;2023-04-06T04:50:12;100780.41;;;6.46;48.34
12949;BME280;6539;49.476;8.484;2023-04-06T04:52:38;100789.03;;;6.48;47.87
12949;BME280;6539;49.476;8.484;2023-04-06T04:55:07;100782.53;;;6.30;48.82
12949;BME280;6539;49.476;8.484;2023-04-06T04:57:35;100782.88;;;6.28;48.52
12949;BME280;6539;49.476;8.484;2023-04-06T05:00:00;100782.63;;;6.37;48.35
12949;BME280;6539;49.476;8.484;2023-04-06T05:02:27;100790.06;;;6.40;48.16
12949;BME280;6539;49.476;8.484;2023-04-06T05:04:57;100787.63;;;6.31;48.75
12949;BME280;6539;49.476;8.484;2023-04-06T05:07:25;100788.91;;;6.41;48.35
12949;BME280;6539;49.476;8.484;2023-04-06T05:09:56;100793.38;;;6.52;48.04
12949;BME280;6539;49.476;8.484;2023-04-06T05:12:24;100788.72;;;6.53;47.79
12949;BME280;6539;49.476;8.484;2023-04-06T05:14:53;100794.78;;;6.43;48.19
12949;BME280;6539;49.476;8.484;2023-04-06T05:17:19;100795.38;;;6.29;48.45
12949;BME280;6539;49.476;8.484;2023-04-06T05:19:47;100803.81;;;6.47;48.16
12949;BME280;6539;49.476;8.484;2023-04-06T05:22:13;100797.00;;;6.60;48.23
12949;BME280;6539;49.476;8.484;2023-04-06T05:24:46;100794.34;;;6.67;47.98
12949;BME280;6539;49.476;8.484;2023-04-06T05:27:12;100798.00;;;6.78;47.94
12949;BME280;6539;49.476;8.484;2023-04-06T05:29:37;100796.22;;;6.89;47.45
12949;BME280;6539;49.476;8.484;2023-04-06T05:32:04;100795.53;;;6.96;47.47
12949;BME280;6539;49.476;8.484;2023-04-06T05:34:32;100802.19;;;6.98;47.72
12949;BME280;6539;49.476;8.484;2023-04-06T05:36:58;100794.41;;;7.00;47.09
12949;BME280;6539;49.476;8.484;2023-04-06T05:39:24;100793.59;;;6.96;47.41
12949;BME280;6539;49.476;8.484;2023-04-06T05:41:49;100799.47;;;6.98;47.13
12949;BME280;6539;49.476;8.484;2023-04-06T05:44:17;100802.22;;;7.02;47.38
12949;BME280;6539;49.476;8.484;2023-04-06T05:46:45;100802.59;;;7.00;47.07
12949;BME280;6539;49.476;8.484;2023-04-06T05:49:14;100812.81;;;7.07;46.92
12949;BME280;6539;49.476;8.484;2023-04-06T05:51:42;100803.88;;;7.10;47.37
12949;BME280;6539;49.476;8.484;2023-04-06T05:54:08;100819.19;;;7.18;46.95
12949;BME280;6539;49.476;8.484;2023-04-06T05:56:36;100811.47;;;7.27;46.88
12949;BME280;6539;49.476;8.484;2023-04-06T05:59:05;100815.13;;;7.38;46.69
12949;BME280;6539;49.476;8.484;2023-04-06T06:01:33;100813.38;;;7.52;46.26
12949;BME280;6539;49.476;8.484;2023-04-06T06:04:04;100818.22;;;7.69;45.86
12949;BME280;6539;49.476;8.484;2023-04-06T06:06:30;100814.09;;;7.86;45.63
12949;BME280;6539;49.476;8.484;2023-04-06T06:08:59;100811.59;;;8.14;44.49
12949;BME280;6539;49.476;8.484;2023-04-06T06:11:29;100809.94;;;8.50;43.80
12949;BME280;6539;49.476;8.484;2023-04-06T06:14:00;100813.03;;;9.10;42.07
12949;BME280;6539;49.476;8.484;2023-04-06T06:16:33;100803.00;;;9.77;41.03
12949;BME280;6539;49.476;8.484;2023-04-06T06:18:59;100804.63;;;10.42;39.46
12949;BME280;6539;49.476;8.484;2023-04-06T06:21:25;100808.09;;;10.85;37.82
12949;BME280;6539;49.476;8.484;2023-04-06T06:23:51;100809.63;;;10.86;37.25
12949;BME280;6539;49.476;8.484;2023-04-06T06:26:21;100809.53;;;11.17;37.18
12949;BME280;6539;49.476;8.484;2023-04-06T06:28:49;100811.06;;;11.25;36.68
12949;BME280;6539;49.476;8.484;2023-04-06T06:31:15;100804.56;;;11.67;35.83
12949;BME280;6539;49.476;8.484;2023-04-06T06:33:51;100800.84;;;11.95;35.06
12949;BME280;6539;49.476;8.484;2023-04-06T06:36:21;100803.75;;;12.29;34.61
12949;BME280;6539;49.476;8.484;2023-04-06T06:38:50;100801.03;;;12.21;34.57
12949;BME280;6539;49.476;8.484;2023-04-06T06:41:16;100809.81;;;12.06;34.47
12949;BME280;6539;49.476;8.484;2023-04-06T06:43:44;100802.25;;;12.20;34.31
12949;BME280;6539;49.476;8.484;2023-04-06T06:46:15;100804.28;;;12.09;34.49
12949;BME280;6539;49.476;8.484;2023-04-06T06:48:41;100806.66;;;12.52;33.95
12949;BME280;6539;49.476;8.484;2023-04-06T06:51:10;100805.88;;;12.51;33.76
12949;BME280;6539;49.476;8.484;2023-04-06T06:53:39;100808.13;;;12.63;33.57
12949;BME280;6539;49.476;8.484;2023-04-06T06:56:05;100803.31;;;12.71;33.64
12949;BME280;6539;49.476;8.484;2023-04-06T06:58:31;100807.94;;;12.81;33.43
12949;BME280;6539;49.476;8.484;2023-04-06T07:01:00;100817.94;;;13.35;32.78
12949;BME280;6539;49.476;8.484;2023-04-06T07:03:26;100814.03;;;13.63;31.97
12949;BME280;6539;49.476;8.484;2023-04-06T07:05:57;100817.41;;;13.47;31.96
12949;BME280;6539;49.476;8.484;2023-04-06T07:08:25;100815.84;;;13.46;32.28
12949;BME280;6539;49.476;8.484;2023-04-06T07:10:52;100819.28;;;13.24;32.24
12949;BME280;6539;49.476;8.484;2023-04-06T07:13:19;100805.16;;;14.02;31.58
12949;BME280;6539;49.476;8.484;2023-04-06T07:15:52;100807.03;;;14.08;32.18
12949;BME280;6539;49.476;8.484;2023-04-06T07:18:25;100803.38;;;14.15;31.29
12949;BME280;6539;49.476;8.484;2023-04-06T07:20:55;100805.97;;;14.72;30.76
12949;BME280;6539;49.476;8.484;2023-04-06T07:23:23;100805.34;;;15.23;29.97
12949;BME280;6539;49.476;8.484;2023-04-06T07:25:52;100803.00;;;15.41;29.60
12949;BME280;6539;49.476;8.484;2023-04-06T07:28:19;100804.75;;;15.32;29.58
12949;BME280;6539;49.476;8.484;2023-04-06T07:30:48;100807.41;;;14.99;29.92
12949;BME280;6539;49.476;8.484;2023-04-06T07:33:18;100808.91;;;15.43;29.63
12949;BME280;6539;49.476;8.484;2023-04-06T07:35:46;100815.03;;;15.51;29.29
12949;BME280;6539;49.476;8.484;2023-04-06T07:38:12;100817.75;;;15.54;29.66
12949;BME280;6539;49.476;8.484;2023-04-06T07:40:38;100816.50;;;15.75;29.42
12949;BME280;6539;49.476;8.484;2023-04-06T07:43:03;100810.44;;;16.28;28.63
12949;BME280;6539;49.476;8.484;2023-04-06T07:45:32;100813.13;;;16.48;28.27
12949;BME280;6539;49.476;8.484;2023-04-06T07:48:00;100809.00;;;16.24;29.14
12949;BME280;6539;49.476;8.484;2023-04-06T07:50:28;100811.50;;;16.18;28.71
12949;BME280;6539;49.476;8.484;2023-04-06T07:52:58;100820.34;;;15.61;29.05
12949;BME280;6539;49.476;8.484;2023-04-06T07:55:25;100812.88;;;15.94;29.32
12949;BME280;6539;49.476;8.484;2023-04-06T07:57:56;100811.78;;;16.08;29.08
12949;BME280;6539;49.476;8.484;2023-04-06T08:00:22;100811.50;;;15.86;29.09
12949;BME280;6539;49.476;8.484;2023-04-06T08:02:48;100812.03;;;16.29;28.43
12949;BME280;6539;49.476;8.484;2023-04-06T08:05:16;100808.03;;;16.14;28.45
12949;BME280;6539;49.476;8.484;2023-04-06T08:07:45;100809.06;;;15.88;29.22
12949;BME280;6539;49.476;8.484;2023-04-06T08:10:13;100813.03;;;15.71;29.55
12949;BME280;6539;49.476;8.484;2023-04-06T08:12:39;100811.16;;;16.16;29.60
12949;BME280;6539;49.476;8.484;2023-04-06T08:15:10;100810.75;;;16.78;27.89
12949;BME280;6539;49.476;8.484;2023-04-06T08:17:38;100807.56;;;16.48;28.58
12949;BME280;6539;49.476;8.484;2023-04-06T08:20:04;100814.31;;;16.79;28.16
12949;BME280;6539;49.476;8.484;2023-04-06T08:22:35;100812.03;;;16.90;28.42
12949;BME280;6539;49.476;8.484;2023-04-06T08:25:03;100819.97;;;17.17;28.13
12949;BME280;6539;49.476;8.484;2023-04-06T08:27:29;100815.00;;;17.12;27.81
12949;BME280;6539;49.476;8.484;2023-04-06T08:29:55;100812.09;;;17.15;27.60
12949;BME280;6539;49.476;8.484;2023-04-06T08:32:21;100815.34;;;16.85;28.23
12949;BME280;6539;49.476;8.484;2023-04-06T08:34:47;100820.31;;;16.61;28.33
12949;BME280;6539;49.476;8.484;2023-04-06T08:37:15;100816.44;;;16.59;28.87
12949;BME280;6539;49.476;8.484;2023-04-06T08:39:41;100808.19;;;17.00;28.24
12949;BME280;6539;49.476;8.484;2023-04-06T08:42:18;100814.59;;;16.97;27.64
12949;BME280;6539;49.476;8.484;2023-04-06T08:44:45;100816.84;;;16.41;28.60
12949;BME280;6539;49.476;8.484;2023-04-06T08:47:14;100809.13;;;16.65;28.73
12949;BME280;6539;49.476;8.484;2023-04-06T08:49:42;100811.22;;;16.61;29.08
12949;BME280;6539;49.476;8.484;2023-04-06T08:52:15;100812.13;;;16.58;29.08
12949;BME280;6539;49.476;8.484;2023-04-06T08:54:45;100800.59;;;16.27;29.37
12949;BME280;6539;49.476;8.484;2023-04-06T08:57:12;100804.03;;;16.63;29.61
12949;BME280;6539;49.476;8.484;2023-04-06T08:59:39;100804.84;;;16.93;29.16
12949;BME280;6539;49.476;8.484;2023-04-06T09:02:09;100805.38;;;17.29;27.52
12949;BME280;6539;49.476;8.484;2023-04-06T09:04:41;100798.25;;;17.28;27.39
12949;BME280;6539;49.476;8.484;2023-04-06T09:07:09;100794.47;;;17.22;27.54
12949;BME280;6539;49.476;8.484;2023-04-06T09:09:40;100796.84;;;16.95;28.16
12949;BME280;6539;49.476;8.484;2023-04-06T09:12:32;100798.75;;;17.10;28.13
12949;BME280;6539;49.476;8.484;2023-04-06T09:15:00;100798.50;;;17.21;27.98
12949;BME280;6539;49.476;8.484;2023-04-06T09:17:33;100792.50;;;17.22;28.21
12949;BME280;6539;49.476;8.484;2023-04-06T09:20:03;100804.13;;;17.59;28.09
12949;BME280;6539;49.476;8.484;2023-04-06T09:22:37;100802.69;;;17.92;27.04
12949;BME280;6539;49.476;8.484;2023-04-06T09:25:03;100805.44;;;18.04;26.53
12949;BME280;6539;49.476;8.484;2023-04-06T09:27:35;100797.38;;;17.31;27.57
12949;BME280;6539;49.476;8.484;2023-04-06T09:30:11;100794.50;;;17.47;27.95
12949;BME280;6539;49.476;8.484;2023-04-06T09:32:53;100796.63;;;17.43;28.68
12949;BME280;6539;49.476;8.484;2023-04-06T09:35:21;100796.50;;;17.34;27.80
12949;BME280;6539;49.476;8.484;2023-04-06T09:37:52;100796.28;;;17.41;27.64
12949;BME280;6539;49.476;8.484;2023-04-06T09:40:23;100804.56;;;17.16;27.70
12949;BME280;6539;49.476;8.484;2023-04-06T09:42:55;100802.09;;;17.46;27.76
12949;BME280;6539;49.476;8.484;2023-04-06T09:45:27;100796.16;;;17.32;27.85
12949;BME280;6539;49.476;8.484;2023-04-06T09:47:57;100790.06;;;17.37;27.96
12949;BME280;6539;49.476;8.484;2023-04-06T09:50:26;100794.91;;;17.62;27.76
12949;BME280;6539;49.476;8.484;2023-04-06T09:52:57;100782.03;;;17.68;28.64
12949;BME280;6539;49.476;8.484;2023-04-06T09:55:34;100784.97;;;17.48;27.75
12949;BME280;6539;49.476;8.484;2023-04-06T09:58:09;100785.00;;;17.61;27.04
12949;BME280;6539;49.476;8.484;2023-04-06T10:00:58;100789.91;;;17.69;26.91
12949;BME280;6539;49.476;8.484;2023-04-06T10:03:54;100781.78;;;17.62;28.06
12949;BME280;6539;49.476;8.484;2023-04-06T10:06:31;100778.66;;;17.98;27.10
12949;BME280;6539;49.476;8.484;2023-04-06T10:09:02;100786.91;;;17.64;26.92
12949;BME280;6539;49.476;8.484;2023-04-06T10:11:30;100780.78;;;17.69;27.05
12949;BME280;6539;49.476;8.484;2023-04-06T10:13:59;100785.78;;;17.61;26.68
12949;BME280;6539;49.476;8.484;2023-04-06T10:16:25;100781.44;;;17.60;26.51
12949;BME280;6539;49.476;8.484;2023-04-06T10:19:04;100780.78;;;17.56;26.38
12949;BME280;6539;49.476;8.484;2023-04-06T10:21:34;100773.53;;;17.46;27.36
12949;BME280;6539;49.476;8.484;2023-04-06T10:24:07;100779.28;;;17.39;27.53
12949;BME280;6539;49.476;8.484;2023-04-06T10:26:36;100773.56;;;17.59;26.51
12949;BME280;6539;49.476;8.484;2023-04-06T10:29:07;100768.19;;;17.39;26.46
12949;BME280;6539;49.476;8.484;2023-04-06T10:31:42;100763.16;;;17.09;27.28
12949;BME280;6539;49.476;8.484;2023-04-06T10:34:08;100770.81;;;17.05;27.59
12949;BME280;6539;49.476;8.484;2023-04-06T10:36:35;100766.03;;;17.05;26.94
12949;BME280;6539;49.476;8.484;2023-04-06T10:39:08;100769.16;;;16.78;27.62
12949;BME280;6539;49.476;8.484;2023-04-06T10:41:45;100776.47;;;17.01;27.47
12949;BME280;6539;49.476;8.484;2023-04-06T10:44:24;100777.97;;;17.43;26.96
12949;BME280;6539;49.476;8.484;2023-04-06T10:46:58;100770.38;;;17.19;27.09
12949;BME280;6539;49.476;8.484;2023-04-06T10:49:27;100770.50;;;17.15;26.18
12949;BME280;6539;49.476;8.484;2023-04-06T10:51:56;100758.84;;;17.20;25.92
12949;BME280;6539;49.476;8.484;2023-04-06T10:54:26;100767.16;;;17.08;25.56
12949;BME280;6539;49.476;8.484;2023-04-06T10:56:53;100754.69;;;17.00;25.42
12949;BME280;6539;49.476;8.484;2023-04-06T10:59:22;100755.06;;;17.14;25.15
12949;BME280;6539;49.476;8.484;2023-04-06T11:01:49;100748.19;;;17.19;25.51
12949;BME280;6539;49.476;8.484;2023-04-06T11:04:17;100750.06;;;17.22;25.54
12949;BME280;6539;49.476;8.484;2023-04-06T11:06:48;100748.31;;;17.28;24.63
12949;BME280;6539;49.476;8.484;2023-04-06T11:09:28;100739.75;;;17.22;25.10
12949;BME280;6539;49.476;8.484;2023-04-06T11:11:58;100733.56;;;17.31;25.48
12949;BME280;6539;49.476;8.484;2023-04-06T11:14:29;100736.59;;;17.74;24.65
12949;BME280;6539;49.476;8.484;2023-04-06T11:16:57;100724.59;;;17.52;24.43
12949;BME280;6539;49.476;8.484;2023-04-06T11:19:23;100728.22;;;17.36;24.52
12949;BME280;6539;49.476;8.484;2023-04-06T11:21:49;100727.88;;;17.47;24.76
12949;BME280;6539;49.476;8.484;2023-04-06T11:24:23;100726.53;;;17.01;24.96
12949;BME280;6539;49.476;8.484;2023-04-06T11:26:55;100726.94;;;16.58;25.54
12949;BME280;6539;49.476;8.484;2023-04-06T11:29:31;100719.09;;;16.69;25.46
12949;BME280;6539;49.476;8.484;2023-04-06T11:32:03;100722.81;;;16.79;25.43
12949;BME280;6539;49.476;8.484;2023-04-06T11:34:33;100717.66;;;16.65;25.63
12949;BME280;6539;49.476;8.484;2023-04-06T11:37:13;100710.81;;;16.82;24.93
12949;BME280;6539;49.476;8.484;2023-04-06T11:39:51;100708.69;;;16.73;24.92
12949;BME280;6539;49.476;8.484;2023-04-06T11:42:28;100706.00;;;16.57;25.01
12949;BME280;6539;49.476;8.484;2023-04-06T11:44:56;100701.47;;;16.63;24.55
12949;BME280;6539;49.476;8.484;2023-04-06T11:47:30;100705.16;;;16.28;25.03
12949;BME280;6539;49.476;8.484;2023-04-06T11:50:14;100692.19;;;16.25;24.52
12949;BME280;6539;49.476;8.484;2023-04-06T11:52:41;100701.75;;;16.08;25.09
12949;BME280;6539;49.476;8.484;2023-04-06T11:55:15;100695.03;;;15.93;25.20
12949;BME280;6539;49.476;8.484;2023-04-06T11:57:44;100691.38;;;15.96;25.54
12949;BME280;6539;49.476;8.484;2023-04-06T12:00:11;100686.00;;;16.05;25.32
12949;BME280;6539;49.476;8.484;2023-04-06T12:02:46;100680.94;;;16.32;25.15
12949;BME280;6539;49.476;8.484;2023-04-06T12:05:17;100672.41;;;16.39;25.44
12949;BME280;6539;49.476;8.484;2023-04-06T12:07:43;100683.84;;;16.70;25.76
12949;BME280;6539;49.476;8.484;2023-04-06T12:10:14;100692.84;;;16.87;25.20
12949;BME280;6539;49.476;8.484;2023-04-06T12:12:40;100671.44;;;16.74;25.11
12949;BME280;6539;49.476;8.484;2023-04-06T12:15:08;100674.91;;;16.91;25.18
12949;BME280;6539;49.476;8.484;2023-04-06T12:17:34;100668.34;;;16.85;25.17
12949;BME280;6539;49.476;8.484;2023-04-06T12:20:00;100673.38;;;17.03;24.85
12949;BME280;6539;49.476;8.484;2023-04-06T12:22:29;100672.41;;;16.68;24.83
12949;BME280;6539;49.476;8.484;2023-04-06T12:24:55;100667.06;;;16.61;24.79
12949;BME280;6539;49.476;8.484;2023-04-06T12:27:21;100659.22;;;16.72;24.98
12949;BME280;6539;49.476;8.484;2023-04-06T12:29:47;100670.09;;;16.66;24.65
12949;BME280;6539;49.476;8.484;2023-04-06T12:32:13;100668.31;;;16.60;24.61
12949;BME280;6539;49.476;8.484;2023-04-06T12:34:43;100656.44;;;16.43;24.80
12949;BME280;6539;49.476;8.484;2023-04-06T12:37:09;100650.47;;;16.32;25.26
12949;BME280;6539;49.476;8.484;2023-04-06T12:39:37;100654.72;;;16.49;24.98
12949;BME280;6539;49.476;8.484;2023-04-06T12:42:03;100653.69;;;16.72;25.08
12949;BME280;6539;49.476;8.484;2023-04-06T12:44:29;100653.63;;;17.01;24.91
12949;BME280;6539;49.476;8.484;2023-04-06T12:46:59;100646.88;;;17.27;25.12
12949;BME280;6539;49.476;8.484;2023-04-06T12:49:26;100649.50;;;17.43;24.00
12949;BME280;6539;49.476;8.484;2023-04-06T12:51:51;100640.97;;;17.37;23.96
12949;BME280;6539;49.476;8.484;2023-04-06T12:54:17;100638.41;;;17.43;24.33
12949;BME280;6539;49.476;8.484;2023-04-06T12:56:43;100646.75;;;17.30;24.20
12949;BME280;6539;49.476;8.484;2023-04-06T12:59:13;100631.09;;;17.24;23.89
12949;BME280;6539;49.476;8.484;2023-04-06T13:01:42;100640.94;;;16.87;24.29
12949;BME280;6539;49.476;8.484;2023-04-06T13:04:12;100640.13;;;16.61;24.61
12949;BME280;6539;49.476;8.484;2023-04-06T13:06:37;100638.38;;;16.67;24.66
12949;BME280;6539;49.476;8.484;2023-04-06T13:09:05;100635.00;;;16.19;24.59
12949;BME280;6539;49.476;8.484;2023-04-06T13:11:35;100633.25;;;16.25;24.64